Terminal Aerodrome Forecast
Issued by NWS

Home | Current Version | Previous Version | Text Only | Print | Product List | Glossary On
Versions: 1 2 3 4 5 6 7 8 9 10 11 12 13 14 15 16 17 18 19
325
FTUS43 KAPX 271722
TAFMBL
TAF
KMBL 271722Z 2718/2818 30009KT P6SM SCT080
     FM272100 31007KT P6SM BKN120
     FM280000 35004KT P6SM BKN110
     FM280300 VRB03KT P6SM BKN110
     FM281000 05004KT P6SM BKN060
     FM281600 02007KT P6SM SCT100=

USA.gov is the U.S. government's official web portal to all federal, state and local government web resources and services.